Time;durP1;ratioP1;P1;durP2;ratioP2;P2;SDS_P1;SDS_P2;PMS_P1;PMS_P2;Temp;Humidity;BMP_temperature;BMP_pressure;BME280_temperature;BME280_humidity;BME280_pressure;Samples;Min_cycle;Max_cycle;Signal;HPM_P1;HPM_P2
2024/01/24 00:02:03;;;;;;;22.33;4.32;;;10.40;99.90;;;;;;5092417;28;20059;-82
2024/01/24 00:04:29;;;;;;;26.33;4.65;;;10.40;99.90;;;;;;5090667;28;20048;-86
2024/01/24 00:06:54;;;;;;;18.90;3.72;;;10.40;99.90;;;;;;5090765;28;20058;-79
2024/01/24 00:09:20;;;;;;;15.45;3.35;;;10.40;99.90;;;;;;5092792;28;20126;-82
2024/01/24 00:11:46;;;;;;;20.67;4.75;;;10.40;99.90;;;;;;5093644;28;20044;-81
2024/01/24 00:14:12;;;;;;;26.67;3.95;;;10.30;99.90;;;;;;5090728;28;20052;-82
2024/01/24 00:16:38;;;;;;;25.20;6.00;;;10.40;99.90;;;;;;5090715;28;20087;-84
2024/01/24 00:19:03;;;;;;;23.15;5.18;;;10.40;99.90;;;;;;5073995;28;20052;-78
2024/01/24 00:21:29;;;;;;;27.40;3.97;;;10.60;99.90;;;;;;5092005;28;20070;-78
2024/01/24 00:23:55;;;;;;;23.15;4.32;;;10.50;99.90;;;;;;5092275;28;20052;-84
2024/01/24 00:26:21;;;;;;;21.35;4.20;;;10.60;99.90;;;;;;5091107;28;20048;-78
2024/01/24 00:28:46;;;;;;;20.50;3.95;;;10.50;99.90;;;;;;5092464;28;20048;-84
2024/01/24 00:31:12;;;;;;;21.65;4.65;;;10.50;99.90;;;;;;5092286;28;20044;-83
2024/01/24 00:33:38;;;;;;;31.77;4.68;;;10.60;99.90;;;;;;5092223;28;20074;-78
2024/01/24 00:36:04;;;;;;;29.10;5.22;;;10.50;99.90;;;;;;5092435;28;20213;-82
2024/01/24 00:38:30;;;;;;;30.25;5.57;;;10.50;99.90;;;;;;5091761;28;20130;-81
2024/01/24 00:40:55;;;;;;;39.67;5.07;;;10.40;99.90;;;;;;5091842;28;20081;-89
2024/01/24 00:43:21;;;;;;;27.80;4.38;;;10.40;99.90;;;;;;5090451;28;20140;-86
2024/01/24 00:45:47;;;;;;;19.50;4.72;;;10.30;99.90;;;;;;5092128;28;20454;-83
2024/01/24 00:48:13;;;;;;;30.25;5.80;;;10.30;99.90;;;;;;5091660;28;20052;-87
2024/01/24 00:50:38;;;;;;;33.00;5.63;;;10.40;99.90;;;;;;5092038;28;20047;-82
2024/01/24 00:53:04;;;;;;;23.00;4.93;;;10.30;99.90;;;;;;5091256;28;20056;-82
2024/01/24 00:55:31;;;;;;;25.50;4.30;;;10.40;99.90;;;;;;5091006;28;20534;-87
2024/01/24 00:57:58;;;;;;;19.02;4.07;;;10.40;99.90;;;;;;5090228;28;20208;-83
2024/01/24 01:00:24;;;;;;;20.27;3.60;;;10.50;99.90;;;;;;5091400;28;20048;-87
2024/01/24 01:02:50;;;;;;;24.67;4.63;;;10.50;99.90;;;;;;5091224;28;20487;-81
2024/01/24 01:05:15;;;;;;;20.80;4.45;;;10.40;99.90;;;;;;5089855;28;20063;-86
2024/01/24 01:07:41;;;;;;;21.85;3.95;;;10.40;99.90;;;;;;5091239;28;20048;-82
2024/01/24 01:10:08;;;;;;;23.77;4.22;;;10.40;99.90;;;;;;5091377;28;20543;-85
2024/01/24 01:12:34;;;;;;;33.60;4.18;;;10.40;99.90;;;;;;5089912;28;20075;-85
2024/01/24 01:15:00;;;;;;;25.60;3.63;;;10.30;99.90;;;;;;5092759;28;20050;-83
2024/01/24 01:17:26;;;;;;;21.08;4.60;;;10.30;99.90;;;;;;5094213;28;20445;-85
2024/01/24 01:19:51;;;;;;;29.27;4.93;;;10.20;99.90;;;;;;5095940;28;20545;-82
2024/01/24 01:22:18;;;;;;;26.83;3.92;;;10.30;99.90;;;;;;5094322;28;20057;-83
2024/01/24 01:24:43;;;;;;;28.08;4.20;;;10.30;99.90;;;;;;5095627;28;20048;-82
2024/01/24 01:27:09;;;;;;;22.40;4.38;;;10.40;99.90;;;;;;5093609;28;20686;-80
2024/01/24 01:29:35;;;;;;;23.20;5.15;;;10.40;99.90;;;;;;5094112;28;20135;-87
2024/01/24 01:32:01;;;;;;;17.02;4.13;;;10.40;99.90;;;;;;5096746;28;20477;-81
2024/01/24 01:34:26;;;;;;;27.02;4.10;;;10.40;99.90;;;;;;5095387;28;20044;-78
2024/01/24 01:36:52;;;;;;;24.63;5.47;;;10.40;99.90;;;;;;5095417;28;20431;-80
2024/01/24 01:39:18;;;;;;;19.42;3.72;;;10.50;99.90;;;;;;5095514;28;20044;-81
2024/01/24 01:41:48;;;;;;;21.63;4.00;;;10.50;99.90;;;;;;5094331;28;20116;-79
2024/01/24 01:44:15;;;;;;;18.80;3.90;;;10.40;99.90;;;;;;5095258;28;20059;-83
2024/01/24 01:46:42;;;;;;;20.40;4.35;;;10.40;99.90;;;;;;5095946;28;20404;-84
2024/01/24 01:49:07;;;;;;;24.60;4.45;;;10.40;99.90;;;;;;5096551;28;20108;-83
2024/01/24 01:51:33;;;;;;;22.63;4.93;;;10.40;99.90;;;;;;5093911;28;20512;-81
2024/01/24 01:54:00;;;;;;;18.45;4.05;;;10.40;99.90;;;;;;5095048;28;20048;-77
2024/01/24 01:56:26;;;;;;;28.10;4.97;;;10.30;99.90;;;;;;5093953;28;20055;-78
2024/01/24 01:58:52;;;;;;;23.08;3.92;;;10.30;99.90;;;;;;5093391;28;20056;-83
2024/01/24 02:01:19;;;;;;;21.73;4.68;;;10.30;99.90;;;;;;5093997;28;20043;-83
2024/01/24 02:03:48;;;;;;;15.52;3.75;;;10.30;99.90;;;;;;5095053;28;20052;-82
2024/01/24 02:06:14;;;;;;;25.45;5.13;;;10.20;99.90;;;;;;5097104;28;20097;-82
2024/01/24 02:08:40;;;;;;;24.55;3.95;;;10.20;99.90;;;;;;5094924;28;20056;-88
2024/01/24 02:11:06;;;;;;;24.92;5.20;;;10.30;99.90;;;;;;5095167;28;20043;-85
2024/01/24 02:13:32;;;;;;;21.35;4.75;;;10.30;99.90;;;;;;5093937;28;20044;-85
2024/01/24 02:16:03;;;;;;;22.05;3.95;;;10.20;99.90;;;;;;5098392;28;20044;-83
2024/01/24 02:18:30;;;;;;;22.00;3.40;;;10.30;99.90;;;;;;5105778;28;20105;-79
2024/01/24 02:20:56;;;;;;;19.77;3.20;;;10.20;99.90;;;;;;5105096;28;20048;-77
2024/01/24 02:23:25;;;;;;;22.77;3.53;;;10.20;99.90;;;;;;5104626;28;20040;-77
2024/01/24 02:25:54;;;;;;;21.85;3.92;;;10.20;99.90;;;;;;5102049;28;20182;-80
2024/01/24 02:28:20;;;;;;;19.00;4.47;;;10.20;99.90;;;;;;5094652;28;20052;-92
2024/01/24 02:30:46;;;;;;;13.40;3.05;;;10.20;99.90;;;;;;5095062;28;20127;-83
2024/01/24 02:33:12;;;;;;;28.83;5.68;;;10.20;99.90;;;;;;5094926;28;20055;-81
2024/01/24 02:35:38;;;;;;;19.33;3.83;;;10.20;99.90;;;;;;5093374;28;20055;-84
2024/01/24 02:38:05;;;;;;;24.10;3.55;;;10.10;99.90;;;;;;5094277;28;20066;-82
2024/01/24 02:40:31;;;;;;;28.90;4.85;;;10.10;99.90;;;;;;5094399;28;20403;-88
2024/01/24 02:42:56;;;;;;;18.02;3.75;;;10.10;99.90;;;;;;5095382;28;20143;-85
2024/01/24 02:45:22;;;;;;;23.90;4.35;;;10.10;99.90;;;;;;5094418;28;20049;-81
2024/01/24 02:47:48;;;;;;;20.08;4.93;;;10.00;99.90;;;;;;5092530;28;20059;-84
2024/01/24 02:50:14;;;;;;;22.27;5.28;;;10.00;99.90;;;;;;5093760;28;20044;-80
2024/01/24 02:52:39;;;;;;;21.40;3.95;;;9.90;99.90;;;;;;5093935;28;20097;-79
2024/01/24 02:55:07;;;;;;;23.98;4.75;;;9.90;99.90;;;;;;5093958;28;20524;-84
2024/01/24 02:57:33;;;;;;;23.95;4.63;;;9.90;99.90;;;;;;5092607;28;20102;-82
2024/01/24 02:59:59;;;;;;;27.63;5.05;;;9.90;99.90;;;;;;5092427;28;20076;-81
2024/01/24 03:02:25;;;;;;;20.90;4.10;;;10.00;99.90;;;;;;5095198;28;20055;-86
2024/01/24 03:04:50;;;;;;;17.98;4.32;;;10.10;99.90;;;;;;5091952;28;20118;-84
2024/01/24 03:07:16;;;;;;;24.75;4.82;;;10.20;99.90;;;;;;5092271;28;20462;-83
2024/01/24 03:09:41;;;;;;;28.88;3.88;;;10.20;99.90;;;;;;5075317;28;20407;-83
2024/01/24 03:12:07;;;;;;;16.63;3.53;;;10.10;99.90;;;;;;5091506;28;20412;-87
2024/01/24 03:14:33;;;;;;;27.40;4.78;;;10.10;99.90;;;;;;5093619;28;20044;-86
2024/01/24 03:16:59;;;;;;;24.73;3.63;;;10.20;99.90;;;;;;5092003;28;20086;-83
2024/01/24 03:19:24;;;;;;;34.60;4.95;;;10.00;99.90;;;;;;5093816;28;20051;-87
2024/01/24 03:21:50;;;;;;;25.67;4.28;;;10.10;99.90;;;;;;5091902;28;20377;-82
2024/01/24 03:24:17;;;;;;;25.17;4.45;;;10.10;99.90;;;;;;5093182;28;20050;-79
2024/01/24 03:26:43;;;;;;;18.40;4.35;;;10.00;99.90;;;;;;5092505;28;20044;-84
2024/01/24 03:29:09;;;;;;;28.58;5.28;;;10.10;99.90;;;;;;5093420;28;20052;-83
2024/01/24 03:31:34;;;;;;;21.08;5.00;;;10.10;99.90;;;;;;5093627;28;20044;-86
2024/01/24 03:34:01;;;;;;;23.88;4.68;;;10.00;99.90;;;;;;5092413;28;20056;-77
2024/01/24 03:36:26;;;;;;;16.27;4.20;;;10.00;99.90;;;;;;5096160;28;20043;-80
2024/01/24 03:38:53;;;;;;;20.80;5.25;;;10.10;99.90;;;;;;5097617;28;20083;-77
2024/01/24 03:41:19;;;;;;;45.40;7.10;;;10.10;99.90;;;;;;5098139;28;20059;-76
2024/01/24 03:43:44;;;;;;;30.85;6.10;;;10.10;99.90;;;;;;5099686;28;20049;-77
2024/01/24 03:46:10;;;;;;;30.13;4.97;;;10.20;99.90;;;;;;5100997;28;20049;-77
2024/01/24 03:48:36;;;;;;;28.02;4.57;;;10.10;99.90;;;;;;5099183;28;20059;-83
2024/01/24 03:51:02;;;;;;;25.10;5.03;;;10.20;99.90;;;;;;5096186;28;20048;-84
2024/01/24 03:53:27;;;;;;;27.40;4.97;;;10.20;99.90;;;;;;5092109;28;20411;-82
2024/01/24 03:55:53;;;;;;;31.67;6.25;;;10.20;99.90;;;;;;5092784;28;20048;-82
2024/01/24 03:58:19;;;;;;;29.08;6.10;;;10.10;99.90;;;;;;5092650;28;20090;-78
2024/01/24 04:00:45;;;;;;;26.23;4.90;;;10.10;99.90;;;;;;5092371;28;20054;-81
2024/01/24 04:03:11;;;;;;;32.67;5.88;;;10.10;99.90;;;;;;5090698;28;20044;-78
2024/01/24 04:05:36;;;;;;;29.58;6.68;;;10.20;99.90;;;;;;5090796;28;20407;-81
2024/01/24 04:08:02;;;;;;;21.40;4.82;;;10.20;99.90;;;;;;5090629;28;20055;-83
2024/01/24 04:10:28;;;;;;;26.67;6.15;;;10.30;99.90;;;;;;5091045;28;20044;-82
2024/01/24 04:12:53;;;;;;;33.60;6.80;;;10.30;99.90;;;;;;5092207;28;20055;-80
2024/01/24 04:15:19;;;;;;;23.42;6.18;;;10.30;99.90;;;;;;5090741;28;20059;-83
2024/01/24 04:17:45;;;;;;;24.33;5.80;;;10.20;99.90;;;;;;5092752;28;20056;-78
2024/01/24 04:20:11;;;;;;;33.33;7.30;;;10.20;99.90;;;;;;5093247;28;20518;-78
2024/01/24 04:22:37;;;;;;;28.27;6.88;;;10.10;99.90;;;;;;5092641;28;20051;-80
2024/01/24 04:25:03;;;;;;;27.15;5.57;;;10.00;99.90;;;;;;5090998;28;20044;-79
2024/01/24 04:27:29;;;;;;;35.88;6.53;;;9.90;99.90;;;;;;5092170;28;20055;-76
2024/01/24 04:29:55;;;;;;;29.83;5.22;;;9.90;99.90;;;;;;5090449;28;20415;-82
2024/01/24 04:32:20;;;;;;;25.48;5.82;;;9.90;99.90;;;;;;5073493;28;20048;-83
2024/01/24 04:34:46;;;;;;;40.70;5.65;;;9.90;99.90;;;;;;5090580;28;20048;-79
2024/01/24 04:37:12;;;;;;;28.98;7.05;;;9.90;99.90;;;;;;5091180;28;20669;-82
2024/01/24 04:39:37;;;;;;;37.55;7.15;;;9.80;99.90;;;;;;5092546;28;20168;-83
2024/01/24 04:42:06;;;;;;;30.80;6.30;;;9.70;99.90;;;;;;5074065;28;20051;-87
2024/01/24 04:44:32;;;;;;;30.90;6.72;;;9.70;99.90;;;;;;5092028;28;20068;-79
2024/01/24 04:46:59;;;;;;;35.35;7.63;;;9.60;99.90;;;;;;5090348;28;20056;-82
2024/01/24 04:49:25;;;;;;;41.30;7.68;;;9.70;99.90;;;;;;5092019;28;20048;-77
2024/01/24 04:51:50;;;;;;;38.35;8.20;;;9.60;99.90;;;;;;5089842;28;20151;-80
2024/01/24 04:54:16;;;;;;;38.60;8.63;;;9.50;99.90;;;;;;5091494;28;20043;-79
2024/01/24 04:56:45;;;;;;;40.10;6.53;;;9.50;99.90;;;;;;5091822;28;20498;-84
2024/01/24 04:59:15;;;;;;;34.13;7.63;;;9.40;99.90;;;;;;5073557;28;20043;-83
2024/01/24 05:01:41;;;;;;;36.67;7.35;;;9.40;99.90;;;;;;5091286;28;20047;-80
2024/01/24 05:04:07;;;;;;;46.47;9.38;;;9.30;99.90;;;;;;5089535;28;20059;-81
2024/01/24 05:06:35;;;;;;;34.28;8.30;;;9.40;99.90;;;;;;5089797;28;20119;-82
2024/01/24 05:09:01;;;;;;;42.28;7.97;;;9.30;99.90;;;;;;5091371;28;20048;-84
2024/01/24 05:11:27;;;;;;;45.28;7.72;;;9.40;99.90;;;;;;5091506;28;20177;-85
2024/01/24 05:13:54;;;;;;;37.58;8.40;;;9.30;99.90;;;;;;5090220;28;20482;-80
2024/01/24 05:16:20;;;;;;;45.30;7.50;;;9.30;99.90;;;;;;5091458;28;20040;-78
2024/01/24 05:18:46;;;;;;;50.10;9.85;;;9.30;99.90;;;;;;5089430;28;20048;-82
2024/01/24 05:21:11;;;;;;;50.15;8.98;;;9.20;99.90;;;;;;5091271;28;20040;-76
2024/01/24 05:23:37;;;;;;;56.72;10.95;;;9.20;99.90;;;;;;5091079;28;20113;-84
2024/01/24 05:26:03;;;;;;;43.55;9.68;;;9.30;99.90;;;;;;5090759;28;20127;-83
2024/01/24 05:28:29;;;;;;;45.78;9.35;;;9.30;99.90;;;;;;5090027;28;20094;-82
2024/01/24 05:30:54;;;;;;;45.42;8.38;;;9.30;99.90;;;;;;5091308;28;20044;-84
2024/01/24 05:33:20;;;;;;;45.72;8.95;;;9.30;99.90;;;;;;5089817;28;20113;-86
2024/01/24 05:35:46;;;;;;;44.28;9.30;;;9.30;99.90;;;;;;5073681;28;20411;-81
2024/01/24 05:38:11;;;;;;;48.60;9.52;;;9.30;99.90;;;;;;5089753;28;20056;-88
2024/01/24 05:40:37;;;;;;;43.55;8.80;;;9.20;99.90;;;;;;5091285;28;20530;-84
2024/01/24 05:43:03;;;;;;;50.85;9.85;;;9.20;99.90;;;;;;5091355;28;20054;-89
2024/01/24 05:45:29;;;;;;;60.75;9.80;;;9.30;99.90;;;;;;5089644;28;20465;-79
2024/01/24 05:47:54;;;;;;;45.75;8.50;;;9.30;99.90;;;;;;5089548;28;20044;-83
2024/01/24 05:50:20;;;;;;;47.10;8.80;;;9.20;99.90;;;;;;5089809;28;20040;-83
2024/01/24 05:52:46;;;;;;;39.92;9.27;;;9.20;99.90;;;;;;5089638;28;20052;-79
2024/01/24 05:55:12;;;;;;;44.80;9.70;;;9.20;99.90;;;;;;5107046;28;20456;-81
2024/01/24 05:57:41;;;;;;;61.92;12.40;;;9.10;99.90;;;;;;5089323;28;20113;-88
2024/01/24 06:00:09;;;;;;;32.63;8.73;;;9.10;99.90;;;;;;5089280;28;20056;-78
2024/01/24 06:02:36;;;;;;;50.22;10.25;;;9.10;99.90;;;;;;5091398;28;20048;-81
2024/01/24 06:05:02;;;;;;;50.05;12.13;;;9.10;99.90;;;;;;5076118;28;20059;-78
2024/01/24 06:07:28;;;;;;;42.75;9.65;;;9.10;99.90;;;;;;5093007;28;20086;-79
2024/01/24 06:09:54;;;;;;;47.85;8.77;;;9.10;99.90;;;;;;5094761;28;20086;-82
2024/01/24 06:12:20;;;;;;;49.70;10.80;;;9.10;99.90;;;;;;5092936;28;20048;-81
2024/01/24 06:14:45;;;;;;;41.47;9.80;;;9.10;99.90;;;;;;5094532;28;20036;-79
2024/01/24 06:17:11;;;;;;;39.25;7.60;;;9.10;99.90;;;;;;5094397;28;20446;-82
2024/01/24 06:19:37;;;;;;;44.92;9.77;;;9.00;99.90;;;;;;5092758;28;20159;-85
2024/01/24 06:22:03;;;;;;;49.72;10.15;;;9.10;99.90;;;;;;5092561;28;20052;-77
2024/01/24 06:24:28;;;;;;;38.10;9.70;;;9.10;99.90;;;;;;5094418;28;20446;-82
2024/01/24 06:26:54;;;;;;;39.55;9.48;;;9.10;99.90;;;;;;5094926;28;20054;-80
2024/01/24 06:29:20;;;;;;;45.97;9.85;;;9.20;99.90;;;;;;5094259;28;20052;-83
2024/01/24 06:31:49;;;;;;;47.45;7.68;;;9.10;99.90;;;;;;5092574;28;20048;-83
2024/01/24 06:34:15;;;;;;;43.10;9.60;;;9.00;99.90;;;;;;5092383;28;20520;-83
2024/01/24 06:36:40;;;;;;;38.75;7.82;;;9.00;99.90;;;;;;5092784;28;20040;-83
2024/01/24 06:39:07;;;;;;;33.55;7.88;;;9.00;99.90;;;;;;5092350;28;20109;-76
2024/01/24 06:41:33;;;;;;;47.65;9.45;;;9.00;99.90;;;;;;5075836;28;20048;-87
2024/01/24 06:43:59;;;;;;;54.08;12.65;;;8.90;99.90;;;;;;5092586;28;20488;-80
2024/01/24 06:46:28;;;;;;;46.55;8.55;;;8.90;99.90;;;;;;5093651;28;20105;-81
2024/01/24 06:48:54;;;;;;;50.72;10.77;;;8.90;99.90;;;;;;5075487;28;20060;-87
2024/01/24 06:51:19;;;;;;;48.17;10.02;;;8.80;99.90;;;;;;5093716;28;20063;-78
2024/01/24 06:53:45;;;;;;;58.33;10.48;;;8.90;99.90;;;;;;5093817;28;20093;-84
2024/01/24 06:56:11;;;;;;;50.92;11.55;;;8.90;99.90;;;;;;5093166;28;20090;-78
2024/01/24 06:58:37;;;;;;;53.45;10.60;;;8.90;99.90;;;;;;5092502;28;20075;-87
2024/01/24 07:01:03;;;;;;;45.75;10.75;;;8.90;99.90;;;;;;5093635;28;20109;-85
2024/01/24 07:03:29;;;;;;;50.97;10.25;;;9.00;99.90;;;;;;5093177;28;20081;-82
2024/01/24 07:05:55;;;;;;;47.33;9.35;;;8.90;99.90;;;;;;5093670;28;20059;-82
2024/01/24 07:08:21;;;;;;;50.10;10.27;;;8.90;99.90;;;;;;5093545;28;20044;-79
2024/01/24 07:10:47;;;;;;;44.17;9.98;;;8.90;99.90;;;;;;5092112;28;20055;-84
2024/01/24 07:13:12;;;;;;;46.42;9.13;;;8.90;99.90;;;;;;5093051;28;20044;-76
2024/01/24 07:15:38;;;;;;;45.88;8.80;;;8.80;99.90;;;;;;5091346;28;20131;-80
2024/01/24 07:18:04;;;;;;;48.13;8.40;;;8.90;99.90;;;;;;5092811;28;20056;-82
2024/01/24 07:20:30;;;;;;;48.55;10.60;;;8.80;99.90;;;;;;5093048;28;20059;-84
2024/01/24 07:22:55;;;;;;;42.08;7.85;;;8.80;99.90;;;;;;5091814;28;20479;-82
2024/01/24 07:25:21;;;;;;;42.40;8.23;;;8.80;99.90;;;;;;5093096;28;20495;-81
2024/01/24 07:27:50;;;;;;;50.22;9.00;;;8.80;99.90;;;;;;5093094;28;20048;-82
2024/01/24 07:30:16;;;;;;;45.28;14.07;;;8.90;99.90;;;;;;5093148;28;20048;-85
2024/01/24 07:32:42;;;;;;;51.92;9.55;;;8.70;99.90;;;;;;5092870;28;20124;-81
2024/01/24 07:35:11;;;;;;;37.88;9.10;;;8.80;99.90;;;;;;5092961;28;20048;-82
2024/01/24 07:37:37;;;;;;;43.72;11.23;;;8.90;99.90;;;;;;5092304;28;20476;-84
2024/01/24 07:40:03;;;;;;;44.80;8.82;;;8.80;99.90;;;;;;5091015;28;20415;-80
2024/01/24 07:42:29;;;;;;;46.17;9.05;;;8.80;99.90;;;;;;5092800;28;20056;-82
2024/01/24 07:44:55;;;;;;;44.60;10.90;;;8.80;99.90;;;;;;5093041;28;20442;-85
2024/01/24 07:47:21;;;;;;;55.25;10.43;;;8.80;99.90;;;;;;5092581;28;20283;-82
2024/01/24 07:49:46;;;;;;;39.35;7.30;;;8.80;99.90;;;;;;5091618;28;20048;-78
2024/01/24 07:52:12;;;;;;;47.13;8.50;;;8.70;99.90;;;;;;5092890;28;20052;-82
2024/01/24 07:54:38;;;;;;;38.17;8.75;;;8.80;99.90;;;;;;5092685;28;20090;-83
2024/01/24 07:57:04;;;;;;;38.38;8.63;;;8.80;99.90;;;;;;5092489;28;20124;-78
2024/01/24 07:59:30;;;;;;;49.80;8.00;;;8.80;99.90;;;;;;5092591;28;20113;-82
2024/01/24 08:01:56;;;;;;;41.85;10.35;;;8.70;99.90;;;;;;5092336;28;20083;-81
2024/01/24 08:04:22;;;;;;;62.38;10.85;;;8.70;99.90;;;;;;5092141;28;20464;-82
2024/01/24 08:06:47;;;;;;;43.67;9.57;;;8.70;99.90;;;;;;5073654;28;20117;-81
2024/01/24 08:09:14;;;;;;;43.88;8.32;;;8.70;99.90;;;;;;5092683;28;20129;-85
2024/01/24 08:11:40;;;;;;;38.47;8.90;;;8.70;99.90;;;;;;5090882;28;20063;-79
2024/01/24 08:14:06;;;;;;;51.42;9.02;;;8.70;99.90;;;;;;5092241;28;20440;-83
2024/01/24 08:16:32;;;;;;;48.45;9.30;;;8.70;99.90;;;;;;5073855;28;20044;-82
2024/01/24 08:18:58;;;;;;;54.15;9.68;;;8.70;99.90;;;;;;5092401;28;20557;-81
2024/01/24 08:21:24;;;;;;;37.72;8.02;;;8.80;99.90;;;;;;5091924;28;20044;-81
2024/01/24 08:23:51;;;;;;;46.58;10.52;;;8.70;99.90;;;;;;5090691;28;20200;-78
2024/01/24 08:26:16;;;;;;;39.05;7.32;;;8.80;99.90;;;;;;5091929;28;20117;-79
2024/01/24 08:28:42;;;;;;;39.70;8.10;;;8.80;99.90;;;;;;5090267;28;20523;-86
2024/01/24 08:31:09;;;;;;;53.13;8.45;;;8.80;99.90;;;;;;5090355;28;20063;-81
2024/01/24 08:33:35;;;;;;;45.88;9.45;;;8.80;99.90;;;;;;5090663;28;20105;-79
2024/01/24 08:36:00;;;;;;;47.40;12.63;;;8.80;99.90;;;;;;5091977;28;20403;-79
2024/01/24 08:38:26;;;;;;;39.67;8.15;;;8.70;99.90;;;;;;5091684;28;20051;-80
2024/01/24 08:40:52;;;;;;;46.83;9.48;;;8.70;99.90;;;;;;5090573;28;20063;-78
2024/01/24 08:43:18;;;;;;;53.65;8.73;;;8.70;99.90;;;;;;5091271;28;20091;-81
2024/01/24 08:45:43;;;;;;;60.90;11.48;;;8.80;99.90;;;;;;5091382;28;20044;-84
2024/01/24 08:48:09;;;;;;;34.30;8.75;;;8.80;99.90;;;;;;5091593;28;20052;-83
2024/01/24 08:50:35;;;;;;;54.13;10.18;;;8.80;99.90;;;;;;5090324;28;20575;-84
2024/01/24 08:53:01;;;;;;;46.33;10.02;;;8.90;99.90;;;;;;5092079;28;20048;-80
2024/01/24 08:55:27;;;;;;;50.50;11.43;;;8.80;99.90;;;;;;5091888;28;20047;-81
2024/01/24 08:57:52;;;;;;;42.13;9.07;;;8.90;99.90;;;;;;5091558;28;20084;-81
2024/01/24 09:00:18;;;;;;;39.70;8.55;;;8.90;99.90;;;;;;5090234;28;20110;-81
2024/01/24 09:02:44;;;;;;;49.45;9.80;;;8.90;99.90;;;;;;5089881;28;20051;-85
2024/01/24 09:05:10;;;;;;;51.85;10.05;;;9.00;99.90;;;;;;5089458;28;20044;-80
2024/01/24 09:07:35;;;;;;;50.58;9.18;;;9.00;99.90;;;;;;5091057;28;20055;-86
2024/01/24 09:10:03;;;;;;;44.88;7.72;;;9.00;99.90;;;;;;5091470;28;20048;-82
2024/01/24 09:12:30;;;;;;;42.80;8.88;;;9.00;99.90;;;;;;5089597;28;20503;-81
2024/01/24 09:14:57;;;;;;;42.55;7.45;;;9.00;99.90;;;;;;5090298;28;20052;-78
2024/01/24 09:17:22;;;;;;;41.50;9.65;;;9.00;99.90;;;;;;5091577;28;20052;-81
2024/01/24 09:19:48;;;;;;;41.05;7.60;;;9.00;99.90;;;;;;5091132;28;20438;-82
2024/01/24 09:22:14;;;;;;;38.22;9.48;;;9.10;99.90;;;;;;5089869;28;20455;-88
2024/01/24 09:24:39;;;;;;;55.58;11.80;;;9.10;99.90;;;;;;5089550;28;20131;-86
2024/01/24 09:27:05;;;;;;;42.83;10.10;;;9.10;99.90;;;;;;5091204;28;20090;-79
2024/01/24 09:29:31;;;;;;;50.00;9.52;;;9.10;99.90;;;;;;5091368;28;20519;-82
2024/01/24 09:31:57;;;;;;;42.13;7.80;;;9.20;99.90;;;;;;5091140;28;20780;-83
2024/01/24 09:34:26;;;;;;;42.40;8.80;;;9.20;99.90;;;;;;5091257;28;20044;-87
2024/01/24 09:36:56;;;;;;;50.80;10.57;;;9.30;99.90;;;;;;5092038;28;20048;-84
2024/01/24 09:39:25;;;;;;;44.67;9.82;;;9.30;99.90;;;;;;5093940;28;20060;-80
2024/01/24 09:41:51;;;;;;;52.92;10.88;;;9.30;99.90;;;;;;5094718;28;20126;-79
2024/01/24 09:44:17;;;;;;;42.47;8.63;;;9.30;99.90;;;;;;5094830;28;20052;-80
2024/01/24 09:46:43;;;;;;;53.33;10.60;;;9.40;99.90;;;;;;5078157;28;20395;-78
2024/01/24 09:49:14;;;;;;;43.58;9.35;;;9.30;99.90;;;;;;5094231;28;20059;-77
2024/01/24 09:51:42;;;;;;;51.03;8.95;;;9.40;99.90;;;;;;5095499;28;20502;-80
2024/01/24 09:54:08;;;;;;;54.92;9.45;;;9.40;99.90;;;;;;5095522;28;20047;-84
2024/01/24 09:56:35;;;;;;;49.78;10.25;;;9.40;99.90;;;;;;5093413;28;20055;-76
2024/01/24 09:59:05;;;;;;;28.50;7.68;;;9.40;99.90;;;;;;5095152;28;20097;-83
2024/01/24 10:01:34;;;;;;;35.72;8.68;;;9.50;99.90;;;;;;5094764;28;20060;-79
2024/01/24 10:04:03;;;;;;;35.85;8.02;;;9.50;99.90;;;;;;5094097;28;20087;-77
2024/01/24 10:06:29;;;;;;;45.20;9.25;;;9.50;99.90;;;;;;5094578;28;20054;-79
2024/01/24 10:08:58;;;;;;;32.15;7.63;;;9.50;99.90;;;;;;5094767;28;20139;-82
2024/01/24 10:11:25;;;;;;;50.75;10.00;;;9.60;99.90;;;;;;5094500;28;20148;-83
2024/01/24 10:13:58;;;;;;;43.50;9.63;;;9.60;99.90;;;;;;5094735;28;20131;-81
2024/01/24 10:16:25;;;;;;;48.97;8.65;;;9.50;99.90;;;;;;5094270;28;20044;-81
2024/01/24 10:18:53;;;;;;;38.33;8.30;;;9.50;99.90;;;;;;5093329;28;20541;-80
2024/01/24 10:21:18;;;;;;;49.13;8.07;;;9.60;99.90;;;;;;5094590;28;20494;-78
2024/01/24 10:23:44;;;;;;;51.40;10.10;;;9.60;99.90;;;;;;5094880;28;20147;-79
2024/01/24 10:26:10;;;;;;;40.25;9.75;;;9.60;99.90;;;;;;5093327;28;20116;-80
2024/01/24 10:28:35;;;;;;;45.88;9.80;;;9.60;99.90;;;;;;5094296;28;20051;-80
2024/01/24 10:31:06;;;;;;;31.10;7.25;;;9.70;99.90;;;;;;5093929;28;20043;-76
2024/01/24 10:33:31;;;;;;;46.55;8.75;;;9.80;99.90;;;;;;5094034;28;20051;-80
2024/01/24 10:35:58;;;;;;;41.90;7.93;;;9.90;99.90;;;;;;5094095;28;20048;-78
2024/01/24 10:38:30;;;;;;;45.42;9.18;;;10.00;99.90;;;;;;5109980;28;20067;-76
2024/01/24 10:40:59;;;;;;;53.30;10.52;;;9.90;99.90;;;;;;5093081;28;20055;-85
2024/01/24 10:43:26;;;;;;;34.72;7.28;;;9.90;99.90;;;;;;5094584;28;20048;-78
2024/01/24 10:45:53;;;;;;;37.40;8.23;;;9.90;99.90;;;;;;5097388;28;20092;-77
2024/01/24 10:48:19;;;;;;;46.28;9.13;;;9.80;99.90;;;;;;5108450;28;20535;-79
2024/01/24 10:50:45;;;;;;;38.38;9.13;;;10.00;99.90;;;;;;5104365;28;20056;-77
2024/01/24 10:53:12;;;;;;;43.70;9.60;;;10.10;99.90;;;;;;5099608;28;20202;-82
2024/01/24 10:55:39;;;;;;;44.78;10.77;;;10.00;99.90;;;;;;5095779;28;20044;-84
2024/01/24 10:58:05;;;;;;;36.58;10.15;;;10.00;99.90;;;;;;5095764;28;20056;-84
2024/01/24 11:00:32;;;;;;;37.80;7.97;;;10.10;99.90;;;;;;5096402;28;20067;-76
2024/01/24 11:02:58;;;;;;;38.85;7.97;;;10.10;99.90;;;;;;5097339;28;20055;-81
2024/01/24 11:05:32;;;;;;;48.80;7.88;;;10.20;99.90;;;;;;5094642;28;20501;-80
2024/01/24 11:08:09;;;;;;;39.08;8.50;;;10.30;99.90;;;;;;5092230;28;20116;-83
2024/01/24 11:10:38;;;;;;;32.00;7.32;;;10.30;99.90;;;;;;5093379;28;20044;-83
2024/01/24 11:13:05;;;;;;;40.03;8.68;;;10.30;99.90;;;;;;5093539;28;20058;-83
2024/01/24 11:15:32;;;;;;;26.48;6.55;;;10.40;99.90;;;;;;5093036;28;20494;-77
2024/01/24 11:18:28;;;;;;;43.42;8.88;;;10.40;99.90;;;;;;5093607;28;20112;-77
2024/01/24 11:20:59;;;;;;;36.08;7.65;;;10.30;99.90;;;;;;5093526;28;20059;-79
2024/01/24 11:23:41;;;;;;;34.13;7.85;;;10.20;99.90;;;;;;5093210;28;20048;-80
2024/01/24 11:26:08;;;;;;;40.88;9.63;;;10.10;99.90;;;;;;5093161;28;20086;-83
2024/01/24 11:28:34;;;;;;;33.30;8.15;;;10.10;99.90;;;;;;5092693;28;20063;-80
2024/01/24 11:31:00;;;;;;;47.40;9.60;;;10.20;99.90;;;;;;5092875;28;20044;-83
2024/01/24 11:33:26;;;;;;;47.22;7.93;;;10.20;99.90;;;;;;5093297;28;20051;-79
2024/01/24 11:35:54;;;;;;;43.90;8.55;;;10.40;99.90;;;;;;5093647;28;20040;-82
2024/01/24 11:38:21;;;;;;;35.15;8.05;;;10.40;99.90;;;;;;5091883;28;20456;-83
2024/01/24 11:40:50;;;;;;;41.15;8.93;;;10.30;99.90;;;;;;5092179;28;20411;-83
2024/01/24 11:43:32;;;;;;;39.22;7.55;;;10.60;99.90;;;;;;5093537;28;20086;-87
2024/01/24 11:46:06;;;;;;;40.67;8.05;;;10.60;99.90;;;;;;5093334;28;20044;-82
2024/01/24 11:48:34;;;;;;;44.33;9.40;;;10.80;99.90;;;;;;5092921;28;20400;-83
2024/01/24 11:51:01;;;;;;;36.92;8.52;;;10.70;99.90;;;;;;5091260;28;20090;-78
2024/01/24 11:53:28;;;;;;;32.65;8.48;;;10.70;99.90;;;;;;5093104;28;20113;-83
2024/01/24 11:55:59;;;;;;;43.42;9.15;;;11.00;99.90;;;;;;5093085;28;20048;-86
2024/01/24 11:58:26;;;;;;;39.70;8.02;;;11.20;99.90;;;;;;5093148;28;20068;-86
2024/01/24 12:01:03;;;;;;;39.97;8.57;;;11.30;99.90;;;;;;5091113;28;20461;-79
2024/01/24 12:03:30;;;;;;;39.60;9.13;;;11.30;99.90;;;;;;5091448;28;20051;-82
2024/01/24 12:05:56;;;;;;;44.40;8.73;;;11.00;99.90;;;;;;5091702;28;20683;-81
2024/01/24 12:08:22;;;;;;;32.97;8.15;;;10.90;99.90;;;;;;5092829;28;20131;-81
2024/01/24 12:10:48;;;;;;;47.90;9.15;;;11.00;99.90;;;;;;5091344;28;20142;-84
2024/01/24 12:13:14;;;;;;;42.67;8.07;;;11.00;99.90;;;;;;5092294;28;20048;-85
2024/01/24 12:15:44;;;;;;;38.13;9.63;;;11.30;99.90;;;;;;5093418;28;20100;-83
2024/01/24 12:18:12;;;;;;;40.60;9.57;;;11.50;99.90;;;;;;5092081;28;20133;-84
2024/01/24 12:20:44;;;;;;;51.97;9.30;;;11.60;99.90;;;;;;5073952;28;20062;-81
2024/01/24 12:23:20;;;;;;;39.20;8.05;;;11.70;99.90;;;;;;5090478;28;20055;-82
2024/01/24 12:25:47;;;;;;;47.65;9.02;;;11.80;99.90;;;;;;5073557;28;20522;-86
2024/01/24 12:28:13;;;;;;;39.30;7.80;;;11.90;99.90;;;;;;5090333;28;20056;-80
2024/01/24 12:30:43;;;;;;;34.03;8.68;;;12.00;99.90;;;;;;5091931;28;20036;-80
2024/01/24 12:33:13;;;;;;;49.63;8.90;;;11.60;99.90;;;;;;5092095;28;20044;-80
2024/01/24 12:35:45;;;;;;;44.35;10.23;;;11.20;99.90;;;;;;5091834;28;20480;-78
2024/01/24 12:38:11;;;;;;;29.75;8.48;;;11.30;99.90;;;;;;5090770;28;20509;-81